Time;durP1;ratioP1;P1;durP2;ratioP2;P2;SDS_P1;SDS_P2;PMS_P1;PMS_P2;Temp;Humidity;BMP_temperature;BMP_pressure;BME280_temperature;BME280_humidity;BME280_pressure;Samples;Min_cycle;Max_cycle;Signal;HPM_P1;HPM_P2
2021/03/16 00:00:21;;;;;;;65.90;31.53;;;0.80;99.90;;;;;;5169734;28;20230;-72
2021/03/16 00:02:52;;;;;;;74.83;34.33;;;0.80;99.90;;;;;;5169874;28;20235;-72
2021/03/16 00:05:24;;;;;;;65.97;33.27;;;0.80;99.90;;;;;;5169028;28;20214;-73
2021/03/16 00:07:56;;;;;;;65.97;32.17;;;0.80;99.90;;;;;;5169408;28;20564;-71
2021/03/16 00:10:27;;;;;;;70.67;31.83;;;0.80;99.90;;;;;;5168834;28;20294;-73
2021/03/16 00:12:59;;;;;;;66.43;33.47;;;0.80;99.90;;;;;;5168155;28;20208;-70
2021/03/16 00:15:31;;;;;;;71.63;32.53;;;0.70;99.90;;;;;;5168563;28;20587;-73
2021/03/16 00:18:03;;;;;;;67.13;30.17;;;0.70;99.90;;;;;;5167012;28;20280;-73
2021/03/16 00:20:35;;;;;;;68.13;31.27;;;0.60;99.90;;;;;;5169852;28;20219;-74
2021/03/16 00:23:07;;;;;;;64.47;31.67;;;0.60;99.90;;;;;;5169867;28;20278;-72
2021/03/16 00:25:39;;;;;;;63.13;29.63;;;0.60;99.90;;;;;;5167990;28;20196;-72
2021/03/16 00:28:11;;;;;;;63.53;31.10;;;0.50;99.90;;;;;;5170401;28;20191;-73
2021/03/16 00:30:43;;;;;;;60.80;29.87;;;0.50;99.90;;;;;;5170897;28;20656;-71
2021/03/16 00:33:15;;;;;;;58.40;28.90;;;0.50;99.90;;;;;;5170493;28;20196;-70
2021/03/16 00:35:47;;;;;;;60.60;29.20;;;0.50;99.90;;;;;;5171392;28;20289;-72
2021/03/16 00:38:19;;;;;;;56.77;28.07;;;0.40;99.90;;;;;;5170273;28;20187;-72
2021/03/16 00:40:50;;;;;;;54.17;27.33;;;0.40;99.90;;;;;;5169922;28;20686;-71
2021/03/16 00:43:22;;;;;;;58.77;28.30;;;0.40;99.90;;;;;;5169499;28;20271;-72
2021/03/16 00:45:53;;;;;;;57.43;27.37;;;0.30;99.90;;;;;;5167873;28;20230;-73
2021/03/16 00:48:25;;;;;;;55.50;28.03;;;0.30;99.90;;;;;;5169673;28;20649;-71
2021/03/16 00:50:57;;;;;;;53.80;24.87;;;0.30;99.90;;;;;;5168739;28;20302;-71
2021/03/16 00:53:29;;;;;;;46.03;24.43;;;0.30;99.90;;;;;;5169719;28;20614;-72
2021/03/16 00:56:01;;;;;;;46.33;23.77;;;0.20;99.90;;;;;;5169914;28;20192;-72
2021/03/16 00:58:33;;;;;;;53.63;24.57;;;0.20;99.90;;;;;;5171255;28;20196;-72
2021/03/16 01:01:08;;;;;;;45.20;24.63;;;0.20;99.90;;;;;;5171436;28;20219;-72
2021/03/16 01:03:39;;;;;;;48.37;25.43;;;0.20;99.90;;;;;;5169513;28;20217;-72
2021/03/16 01:06:12;;;;;;;52.40;25.33;;;0.20;99.90;;;;;;5170436;28;20196;-72
2021/03/16 01:08:43;;;;;;;51.50;25.80;;;0.20;99.90;;;;;;5171692;28;20202;-73
2021/03/16 01:11:15;;;;;;;49.03;25.43;;;0.20;99.90;;;;;;5169970;28;20252;-72
2021/03/16 01:13:47;;;;;;;47.27;23.23;;;0.20;99.90;;;;;;5178814;28;20238;-70
2021/03/16 01:16:19;;;;;;;51.77;25.60;;;0.20;99.90;;;;;;5169085;28;20218;-70
2021/03/16 01:18:51;;;;;;;48.60;24.57;;;0.20;99.90;;;;;;5169866;28;20242;-72
2021/03/16 01:21:23;;;;;;;56.10;25.80;;;0.20;99.90;;;;;;5169965;28;20313;-71
2021/03/16 01:23:54;;;;;;;48.03;24.23;;;0.20;99.90;;;;;;5168405;28;20196;-71
2021/03/16 01:26:26;;;;;;;48.67;23.10;;;0.20;99.90;;;;;;5168952;28;20196;-71
2021/03/16 01:28:58;;;;;;;46.20;23.20;;;0.10;99.90;;;;;;5169446;28;20206;-72
2021/03/16 01:31:30;;;;;;;48.97;22.70;;;0.20;99.90;;;;;;5167457;28;20196;-72
2021/03/16 01:34:02;;;;;;;46.03;23.20;;;0.20;99.90;;;;;;5166490;28;20227;-72
2021/03/16 01:36:33;;;;;;;46.20;22.83;;;0.20;99.90;;;;;;5166327;28;20639;-72
2021/03/16 01:39:05;;;;;;;47.20;22.47;;;0.10;99.90;;;;;;5167935;28;20282;-72
2021/03/16 01:41:36;;;;;;;47.80;23.43;;;0.10;99.90;;;;;;5171118;28;20220;-73
2021/03/16 01:44:08;;;;;;;45.67;22.73;;;0.10;99.90;;;;;;5168905;28;20242;-71
2021/03/16 01:46:40;;;;;;;50.60;23.60;;;0.00;99.90;;;;;;5167647;28;20206;-72
2021/03/16 01:49:13;;;;;;;49.40;24.07;;;0.00;99.90;;;;;;5170009;28;20611;-72
2021/03/16 01:51:45;;;;;;;54.40;24.70;;;0.00;99.90;;;;;;5170089;28;20278;-72
2021/03/16 01:54:16;;;;;;;55.53;24.87;;;0.00;99.90;;;;;;5171077;28;20223;-73
2021/03/16 01:56:49;;;;;;;54.20;23.57;;;-0.10;99.90;;;;;;5170123;28;20203;-72
2021/03/16 01:59:21;;;;;;;54.60;25.27;;;-0.10;99.90;;;;;;5169981;28;20192;-71
2021/03/16 02:01:53;;;;;;;52.30;23.47;;;-0.10;99.90;;;;;;5170818;28;20306;-72
2021/03/16 02:04:24;;;;;;;52.70;22.27;;;-0.10;99.90;;;;;;5174746;28;20242;-72
2021/03/16 02:07:08;;;;;;;52.60;23.33;;;-0.20;99.90;;;;;;5174476;28;20259;-71
2021/03/16 02:09:42;;;;;;;49.23;22.77;;;-0.20;99.90;;;;;;5175865;28;20206;-71
2021/03/16 02:15:43;;;;;;;50.57;24.27;;;-0.20;99.90;;;;;;5162593;28;20289;-71
2021/03/16 02:18:21;;;;;;;49.80;24.30;;;-0.30;99.90;;;;;;5171227;28;20231;-72
2021/03/16 02:21:08;;;;;;;52.60;23.23;;;-0.30;99.90;;;;;;5171496;28;20230;-71
2021/03/16 02:24:06;;;;;;;53.87;24.03;;;-0.30;99.90;;;;;;5172887;28;20207;-71
2021/03/16 02:27:02;;;;;;;54.73;24.60;;;-0.30;99.90;;;;;;5173476;28;20201;-71
2021/03/16 02:33:23;;;;;;;49.23;23.00;;;-0.40;99.90;;;;;;5170091;28;20574;-71
2021/03/16 02:35:58;;;;;;;51.57;24.10;;;-0.40;99.90;;;;;;5169913;28;20209;-71
2021/03/16 02:38:39;;;;;;;56.80;25.43;;;-0.40;99.90;;;;;;5170083;28;20201;-72
2021/03/16 02:41:15;;;;;;;58.70;25.07;;;-0.40;99.90;;;;;;5170309;28;20572;-73
2021/03/16 02:43:47;;;;;;;51.07;23.30;;;-0.40;99.90;;;;;;5169844;28;20657;-72
2021/03/16 02:46:20;;;;;;;53.03;25.43;;;-0.50;99.90;;;;;;5169514;28;20235;-70
2021/03/16 02:48:54;;;;;;;52.30;24.97;;;-0.50;99.90;;;;;;5169652;28;20191;-72
2021/03/16 02:51:26;;;;;;;63.00;29.03;;;-0.50;99.90;;;;;;5169823;28;20224;-72
2021/03/16 02:53:58;;;;;;;57.70;27.33;;;-0.50;99.90;;;;;;5170456;28;20297;-71
2021/03/16 02:56:32;;;;;;;57.33;28.20;;;-0.50;99.90;;;;;;5172341;28;20206;-70
2021/03/16 02:59:07;;;;;;;53.93;26.93;;;-0.50;99.90;;;;;;5171822;28;20200;-71
2021/03/16 03:01:39;;;;;;;60.17;28.10;;;-0.60;99.90;;;;;;5171454;28;20229;-72
2021/03/16 03:04:12;;;;;;;54.57;26.23;;;-0.60;99.90;;;;;;5171797;28;20553;-69
2021/03/16 03:06:44;;;;;;;57.00;25.67;;;-0.60;99.90;;;;;;5171401;28;20200;-71
2021/03/16 03:09:16;;;;;;;54.63;25.50;;;-0.70;99.90;;;;;;5171648;28;20192;-71
2021/03/16 03:11:47;;;;;;;54.97;25.27;;;-0.70;99.90;;;;;;5170314;28;20212;-71
2021/03/16 03:14:19;;;;;;;57.90;27.60;;;-0.70;99.90;;;;;;5168873;28;20198;-72
2021/03/16 03:16:51;;;;;;;58.83;27.73;;;-0.70;99.90;;;;;;5170679;28;20231;-71
2021/03/16 03:19:23;;;;;;;60.93;28.63;;;-0.80;99.90;;;;;;5171794;28;20618;-71
2021/03/16 03:22:04;;;;;;;61.43;27.67;;;-0.80;99.90;;;;;;5169592;28;20245;-71
2021/03/16 03:24:55;;;;;;;62.63;29.87;;;-0.80;99.90;;;;;;5168818;28;20203;-71
2021/03/16 03:30:59;;;;;;;54.57;26.93;;;-0.80;99.90;;;;;;5171334;28;20184;-70
2021/03/16 03:33:32;;;;;;;56.57;29.67;;;-0.80;99.90;;;;;;5170760;28;20306;-71
2021/03/16 03:36:04;;;;;;;55.60;28.80;;;-0.80;99.90;;;;;;5171478;28;20328;-72
2021/03/16 03:38:37;;;;;;;66.17;30.47;;;-0.80;99.90;;;;;;5171685;28;20198;-71
2021/03/16 03:41:10;;;;;;;64.40;31.67;;;-0.80;99.90;;;;;;5171551;28;20242;-70
2021/03/16 03:47:28;;;;;;;54.50;29.40;;;-0.80;99.90;;;;;;5171383;28;20175;-70
2021/03/16 03:50:00;;;;;;;64.57;31.90;;;-0.70;99.90;;;;;;5169886;28;20247;-70
2021/03/16 03:52:33;;;;;;;64.37;30.23;;;-0.70;99.90;;;;;;5169782;28;20191;-72
2021/03/16 03:55:06;;;;;;;64.47;31.10;;;-0.70;99.90;;;;;;5168313;28;20286;-72
2021/03/16 03:57:56;;;;;;;59.20;30.53;;;-0.80;99.90;;;;;;5167626;28;20192;-71
2021/03/16 04:04:13;;;;;;;60.90;29.03;;;-0.80;99.90;;;;;;5167489;28;20222;-70
2021/03/16 04:06:45;;;;;;;59.70;28.67;;;-0.90;99.90;;;;;;5167551;28;20282;-71
2021/03/16 04:09:17;;;;;;;60.30;30.40;;;-0.90;99.90;;;;;;5167187;28;20198;-71
2021/03/16 04:11:50;;;;;;;63.93;30.70;;;-0.90;99.90;;;;;;5166332;28;20218;-72
2021/03/16 04:14:22;;;;;;;59.20;29.77;;;-0.90;99.90;;;;;;5167078;28;20721;-71
2021/03/16 04:16:54;;;;;;;69.23;32.33;;;-0.90;99.90;;;;;;5166976;28;20203;-71
2021/03/16 04:19:27;;;;;;;69.33;32.13;;;-0.90;99.90;;;;;;5167034;28;20206;-71
2021/03/16 04:21:58;;;;;;;70.77;32.63;;;-1.00;99.90;;;;;;5167328;28;20231;-72
2021/03/16 04:24:30;;;;;;;64.30;33.27;;;-1.00;99.90;;;;;;5167279;28;20205;-72
2021/03/16 04:27:02;;;;;;;71.30;34.10;;;-1.00;99.90;;;;;;5167295;28;20561;-71
2021/03/16 04:29:33;;;;;;;73.13;35.90;;;-1.10;99.90;;;;;;5167224;28;20195;-71
2021/03/16 04:32:05;;;;;;;71.10;35.53;;;-1.10;99.90;;;;;;5168002;28;20198;-72
2021/03/16 04:34:37;;;;;;;81.63;38.10;;;-1.10;99.90;;;;;;5167783;28;20191;-72
2021/03/16 04:37:09;;;;;;;79.67;38.60;;;-1.10;99.90;;;;;;5167703;28;20200;-71
2021/03/16 04:39:40;;;;;;;83.90;42.57;;;-1.20;99.90;;;;;;5167275;28;20553;-71
2021/03/16 04:42:12;;;;;;;85.80;41.97;;;-1.20;99.90;;;;;;5166856;28;20223;-71
2021/03/16 04:44:43;;;;;;;86.87;43.63;;;-1.20;99.90;;;;;;5167036;28;20556;-71
2021/03/16 04:47:15;;;;;;;94.00;45.73;;;-1.20;99.90;;;;;;5166958;28;20196;-70
2021/03/16 04:49:47;;;;;;;96.67;45.17;;;-1.20;99.90;;;;;;5166705;28;20206;-71
2021/03/16 04:52:18;;;;;;;90.43;46.60;;;-1.20;99.90;;;;;;5166517;28;20191;-71
2021/03/16 04:54:50;;;;;;;85.37;42.80;;;-1.30;99.90;;;;;;5166412;28;20203;-72
2021/03/16 04:57:21;;;;;;;91.67;44.53;;;-1.30;99.90;;;;;;5165565;28;20199;-72
2021/03/16 04:59:53;;;;;;;93.57;45.93;;;-1.30;99.90;;;;;;5166311;28;20197;-71
2021/03/16 05:02:24;;;;;;;87.80;44.30;;;-1.30;99.90;;;;;;5166457;28;20227;-71
2021/03/16 05:04:56;;;;;;;86.07;43.63;;;-1.30;99.90;;;;;;5166136;28;20182;-71
2021/03/16 05:07:27;;;;;;;88.70;42.67;;;-1.30;99.90;;;;;;5166123;28;20207;-70
2021/03/16 05:09:59;;;;;;;84.70;41.77;;;-1.30;99.90;;;;;;5166261;28;20206;-71
2021/03/16 05:12:30;;;;;;;84.57;42.40;;;-1.30;99.90;;;;;;5166104;28;20206;-70
2021/03/16 05:15:04;;;;;;;88.77;45.07;;;-1.30;99.90;;;;;;5177914;28;20238;-72
2021/03/16 05:17:35;;;;;;;86.07;44.30;;;-1.20;99.90;;;;;;5166024;28;20235;-72
2021/03/16 05:20:07;;;;;;;88.73;44.33;;;-1.20;99.90;;;;;;5165975;28;20291;-71
2021/03/16 05:22:39;;;;;;;88.63;42.00;;;-1.10;99.90;;;;;;5166480;28;20285;-72
2021/03/16 05:25:12;;;;;;;91.33;44.53;;;-1.10;99.90;;;;;;5166347;28;20201;-70
2021/03/16 05:27:44;;;;;;;85.10;42.23;;;-1.00;99.90;;;;;;5166612;28;20246;-71
2021/03/16 05:30:16;;;;;;;88.27;42.80;;;-0.90;99.90;;;;;;5166099;28;20199;-71
2021/03/16 05:32:54;;;;;;;88.73;44.83;;;-0.80;99.90;;;;;;5167168;28;20199;-72
2021/03/16 05:35:26;;;;;;;84.33;44.27;;;-0.80;99.90;;;;;;5166086;28;20220;-71
2021/03/16 05:37:58;;;;;;;86.27;45.40;;;-0.70;99.90;;;;;;5166726;28;20196;-70
2021/03/16 05:40:33;;;;;;;86.90;45.30;;;-0.50;99.90;;;;;;5169748;28;20216;-72
2021/03/16 05:43:06;;;;;;;83.00;44.60;;;-0.40;99.90;;;;;;5170141;28;20195;-71
2021/03/16 05:45:38;;;;;;;89.07;46.03;;;-0.30;99.90;;;;;;5170211;28;20196;-78
2021/03/16 05:48:11;;;;;;;89.90;47.70;;;-0.10;99.90;;;;;;5171502;28;20202;-77
2021/03/16 05:50:43;;;;;;;83.53;45.27;;;0.10;99.90;;;;;;5170566;28;20643;-78
2021/03/16 05:53:15;;;;;;;98.57;54.97;;;0.30;99.90;;;;;;5168888;28;20431;-77
2021/03/16 05:55:47;;;;;;;92.60;49.57;;;0.40;99.90;;;;;;5171023;28;20191;-76
2021/03/16 05:58:19;;;;;;;91.33;48.50;;;0.50;99.90;;;;;;5170798;28;20200;-77
2021/03/16 06:00:50;;;;;;;88.50;45.70;;;0.70;99.90;;;;;;5170391;28;20302;-74
2021/03/16 06:03:22;;;;;;;95.87;48.07;;;0.80;99.90;;;;;;5171447;28;20196;-72
2021/03/16 06:05:53;;;;;;;81.10;43.93;;;0.90;99.90;;;;;;5170305;28;20249;-76
2021/03/16 06:08:26;;;;;;;85.30;43.13;;;1.10;99.90;;;;;;5170503;28;20196;-74
2021/03/16 06:10:59;;;;;;;84.30;43.77;;;1.20;99.90;;;;;;5171618;28;20195;-81
2021/03/16 06:13:30;;;;;;;81.93;43.67;;;1.40;99.90;;;;;;5187990;28;20188;-79
2021/03/16 06:16:15;;;;;;;88.20;43.63;;;1.50;99.90;;;;;;5163166;28;20743;-77
2021/03/16 06:18:52;;;;;;;88.93;44.77;;;1.70;99.90;;;;;;5187511;28;20701;-84
2021/03/16 06:21:23;;;;;;;91.90;45.17;;;1.90;99.90;;;;;;5174777;28;20227;-84
2021/03/16 06:23:57;;;;;;;93.03;45.93;;;2.00;99.90;;;;;;5173196;28;20290;-79
2021/03/16 06:26:32;;;;;;;90.57;44.17;;;2.20;99.90;;;;;;5170541;28;20198;-80
2021/03/16 06:32:49;;;;;;;92.43;47.13;;;2.50;99.90;;;;;;5172843;28;20230;-81
2021/03/16 06:35:23;;;;;;;90.63;46.67;;;2.70;99.90;;;;;;5174032;28;20258;-80
2021/03/16 06:38:11;;;;;;;98.10;48.10;;;3.00;99.90;;;;;;5180225;28;20179;-86
2021/03/16 06:40:43;;;;;;;94.67;44.63;;;3.20;99.90;;;;;;5171439;28;20281;-81
2021/03/16 06:43:14;;;;;;;82.83;42.60;;;3.20;99.90;;;;;;5170009;28;20203;-79
2021/03/16 06:49:33;;;;;;;81.30;42.87;;;3.90;99.90;;;;;;5169316;28;20600;-81
2021/03/16 06:52:11;;;;;;;83.53;41.60;;;5.60;99.90;;;;;;5169224;28;20200;-81
2021/03/16 06:54:42;;;;;;;85.03;38.87;;;7.30;99.90;;;;;;5169015;28;20231;-79
2021/03/16 06:57:24;;;;;;;69.90;33.53;;;9.00;99.90;;;;;;5169866;28;20274;-80
2021/03/16 07:00:13;;;;;;;53.60;28.47;;;10.50;99.90;;;;;;5168745;28;20196;-80
2021/03/16 07:02:45;;;;;;;45.73;25.83;;;12.00;99.90;;;;;;5165628;28;20220;-78
2021/03/16 07:05:29;;;;;;;46.60;29.17;;;13.00;99.90;;;;;;5169003;28;20196;-79
2021/03/16 07:08:06;;;;;;;52.33;31.87;;;13.70;99.90;;;;;;5168821;28;20195;-79
2021/03/16 07:10:40;;;;;;;62.63;35.93;;;14.20;99.90;;;;;;5169012;28;20200;-80
2021/03/16 07:13:12;;;;;;;56.37;36.30;;;14.70;99.90;;;;;;5167965;28;20202;-80
2021/03/16 07:15:44;;;;;;;53.43;33.53;;;14.40;99.90;;;;;;5166757;28;20287;-81
2021/03/16 07:18:18;;;;;;;59.80;35.83;;;13.80;99.90;;;;;;5167123;28;20207;-80
2021/03/16 07:20:55;;;;;;;79.40;46.00;;;12.20;99.90;;;;;;5167348;28;20215;-78
2021/03/16 07:23:29;;;;;;;75.20;46.37;;;10.80;99.90;;;;;;5168777;28;20536;-79
2021/03/16 07:26:01;;;;;;;65.67;41.90;;;10.10;99.90;;;;;;5168272;28;20206;-79
2021/03/16 07:28:33;;;;;;;67.87;42.20;;;10.00;99.90;;;;;;5168002;28;20187;-78
2021/03/16 07:31:06;;;;;;;61.17;39.33;;;10.20;99.90;;;;;;5168326;28;20218;-79
2021/03/16 07:33:40;;;;;;;65.87;38.97;;;10.40;99.90;;;;;;5168078;28;20293;-77
2021/03/16 07:36:12;;;;;;;66.53;39.47;;;10.40;99.90;;;;;;5168207;28;20656;-78
2021/03/16 07:38:45;;;;;;;63.67;37.20;;;10.50;99.90;;;;;;5166480;28;20209;-77
2021/03/16 07:41:16;;;;;;;64.93;36.93;;;10.60;99.90;;;;;;5166689;28;20223;-77
2021/03/16 07:44:08;;;;;;;66.60;36.40;;;10.50;99.90;;;;;;5167754;28;20203;-78
2021/03/16 07:46:51;;;;;;;61.13;31.63;;;10.10;99.90;;;;;;5167941;28;20622;-78
2021/03/16 07:49:33;;;;;;;44.73;26.17;;;9.50;99.90;;;;;;5167510;28;20191;-80
2021/03/16 07:52:20;;;;;;;49.63;28.03;;;9.40;99.90;;;;;;5168124;28;20655;-76
2021/03/16 07:54:54;;;;;;;45.77;26.77;;;9.30;99.90;;;;;;5167501;28;20184;-76
2021/03/16 07:57:28;;;;;;;55.27;28.97;;;8.90;99.90;;;;;;5167780;28;20226;-72
2021/03/16 08:04:14;;;;;;;39.37;23.30;;;8.60;99.90;;;;;;5167303;28;20544;-76
2021/03/16 08:06:56;;;;;;;42.77;22.87;;;8.70;99.90;;;;;;5164270;28;20669;-76
2021/03/16 08:09:28;;;;;;;43.30;23.10;;;8.60;99.90;;;;;;5166968;28;20198;-74
2021/03/16 08:12:00;;;;;;;38.23;23.37;;;8.60;99.90;;;;;;5166326;28;20223;-74
2021/03/16 08:14:33;;;;;;;37.00;20.60;;;8.60;99.90;;;;;;5167153;28;20191;-76
2021/03/16 08:17:05;;;;;;;36.00;20.00;;;8.60;99.90;;;;;;5166304;28;20674;-75
2021/03/16 08:19:39;;;;;;;34.70;19.87;;;8.70;99.90;;;;;;5162657;28;20188;-75
2021/03/16 08:22:19;;;;;;;33.17;20.13;;;8.80;99.90;;;;;;5161584;28;20223;-77
2021/03/16 08:25:01;;;;;;;38.47;21.37;;;8.90;99.90;;;;;;5149599;28;20683;-74
2021/03/16 08:27:34;;;;;;;37.43;22.07;;;8.90;99.90;;;;;;5166031;28;20619;-75
2021/03/16 08:30:08;;;;;;;32.77;20.53;;;8.90;99.90;;;;;;5166476;28;20602;-76
2021/03/16 08:32:40;;;;;;;40.63;22.23;;;9.00;99.90;;;;;;5149196;28;20195;-74
2021/03/16 08:35:16;;;;;;;36.10;20.87;;;9.10;99.90;;;;;;5166903;28;20614;-75
2021/03/16 08:37:51;;;;;;;39.13;20.43;;;9.20;99.90;;;;;;5167054;28;20199;-75
2021/03/16 08:40:24;;;;;;;37.13;19.27;;;9.20;99.90;;;;;;5167385;28;20277;-75
2021/03/16 08:42:56;;;;;;;33.80;20.80;;;9.30;99.90;;;;;;5158891;28;20223;-75
2021/03/16 08:45:30;;;;;;;35.73;20.70;;;9.50;99.90;;;;;;5168243;28;20195;-72
2021/03/16 08:48:01;;;;;;;36.27;20.97;;;9.50;99.90;;;;;;5169960;28;20206;-74
2021/03/16 08:50:33;;;;;;;36.00;20.63;;;9.20;99.90;;;;;;5168452;28;20192;-75
2021/03/16 08:53:05;;;;;;;29.73;18.00;;;9.10;99.90;;;;;;5169928;28;20196;-74
2021/03/16 08:55:37;;;;;;;34.20;19.27;;;9.20;99.90;;;;;;5171016;28;20188;-73
2021/03/16 08:58:12;;;;;;;31.37;19.47;;;9.10;99.90;;;;;;5176074;28;20195;-73
2021/03/16 09:00:45;;;;;;;29.43;18.97;;;9.00;99.90;;;;;;5175993;28;20504;-76
2021/03/16 09:03:28;;;;;;;30.80;17.53;;;9.10;99.90;;;;;;5174067;28;20250;-76
2021/03/16 09:06:01;;;;;;;31.73;16.27;;;9.20;99.90;;;;;;5174556;28;20536;-77
2021/03/16 09:08:33;;;;;;;33.17;18.17;;;9.20;99.90;;;;;;5174209;28;20223;-76
2021/03/16 09:11:05;;;;;;;32.37;17.00;;;9.40;99.90;;;;;;5172296;28;20188;-74
2021/03/16 09:13:36;;;;;;;34.27;18.53;;;9.60;99.90;;;;;;5170557;28;20195;-77
2021/03/16 09:16:08;;;;;;;28.57;17.23;;;9.70;99.90;;;;;;5168267;28;20270;-79
2021/03/16 09:18:45;;;;;;;25.50;15.73;;;9.70;99.90;;;;;;5183251;28;20246;-77
2021/03/16 09:21:19;;;;;;;26.97;17.10;;;9.50;99.90;;;;;;5168664;28;20219;-76
2021/03/16 09:23:51;;;;;;;28.60;17.73;;;9.40;99.90;;;;;;5168398;28;20195;-79
2021/03/16 09:26:27;;;;;;;26.17;15.93;;;9.30;99.90;;;;;;5166490;28;20192;-80
2021/03/16 09:29:00;;;;;;;29.20;15.80;;;9.10;99.90;;;;;;5165631;28;20550;-77
2021/03/16 09:31:32;;;;;;;26.23;15.20;;;8.90;99.90;;;;;;5166073;28;20662;-78
2021/03/16 09:34:05;;;;;;;27.57;16.20;;;8.70;99.90;;;;;;5165676;28;20611;-74
2021/03/16 09:36:37;;;;;;;28.40;15.73;;;8.70;99.90;;;;;;5165775;28;20221;-78
2021/03/16 09:39:10;;;;;;;32.73;16.97;;;8.60;99.90;;;;;;5165873;28;20199;-79
2021/03/16 09:41:52;;;;;;;30.00;17.70;;;8.60;99.90;;;;;;5163887;28;20634;-79
2021/03/16 09:44:36;;;;;;;29.97;15.80;;;8.40;99.90;;;;;;5166003;28;20577;-75
2021/03/16 09:47:08;;;;;;;29.77;15.57;;;8.40;99.90;;;;;;5165588;28;20188;-80
2021/03/16 09:49:41;;;;;;;33.70;19.77;;;8.60;99.90;;;;;;5165844;28;20243;-75
2021/03/16 09:52:13;;;;;;;45.67;25.90;;;8.70;99.90;;;;;;5164250;28;20219;-75
2021/03/16 09:54:45;;;;;;;45.90;26.37;;;8.70;99.90;;;;;;5165178;28;20695;-72
2021/03/16 09:57:17;;;;;;;45.10;26.97;;;8.60;99.90;;;;;;5165480;28;20199;-77
2021/03/16 09:59:56;;;;;;;47.23;26.50;;;8.50;99.90;;;;;;5166497;28;20525;-77
2021/03/16 10:02:49;;;;;;;54.00;27.23;;;7.90;99.90;;;;;;5124026;29;20727;-69
2021/03/16 10:05:22;;;;;;;50.70;26.60;;;7.40;99.90;;;;;;5124619;29;20419;-76
2021/03/16 10:07:54;;;;;;;51.77;27.73;;;7.20;99.90;;;;;;5110418;29;20212;-74
2021/03/16 10:10:27;;;;;;;54.60;27.50;;;7.20;99.90;;;;;;5124371;29;20205;-73
2021/03/16 10:13:07;;;;;;;62.43;29.87;;;7.30;99.90;;;;;;5122616;29;20208;-73
2021/03/16 10:20:07;;;;;;;52.47;27.37;;;7.30;99.90;;;;;;5127384;28;20310;-72
2021/03/16 10:22:38;;;;;;;49.13;26.63;;;6.90;99.90;;;;;;5165711;28;20353;-74
2021/03/16 10:25:10;;;;;;;46.60;25.13;;;6.90;99.90;;;;;;5168370;28;20658;-76
2021/03/16 10:27:42;;;;;;;43.67;25.63;;;6.70;99.90;;;;;;5169771;28;20289;-75
2021/03/16 10:34:09;;;;;;;51.47;25.40;;;6.50;99.90;;;;;;5169012;28;20202;-74
2021/03/16 10:36:41;;;;;;;50.70;24.97;;;6.60;99.90;;;;;;5169623;28;20199;-74
2021/03/16 10:39:13;;;;;;;47.53;26.10;;;6.60;99.90;;;;;;5169193;28;20199;-79
2021/03/16 10:41:44;;;;;;;53.00;25.70;;;6.40;99.90;;;;;;5169041;28;20224;-72
2021/03/16 10:44:16;;;;;;;43.30;24.30;;;6.20;99.90;;;;;;5168610;28;20192;-73
2021/03/16 10:50:46;;;;;;;44.67;24.70;;;6.10;99.90;;;;;;5168833;28;20645;-73
2021/03/16 10:53:19;;;;;;;46.30;25.57;;;6.20;99.90;;;;;;5168941;28;20192;-83
2021/03/16 10:56:04;;;;;;;46.90;24.73;;;6.40;99.90;;;;;;5167188;28;20206;-62
2021/03/16 10:58:36;;;;;;;45.23;25.00;;;6.60;99.90;;;;;;5167311;28;20192;-69
2021/03/16 11:01:08;;;;;;;44.17;22.33;;;6.90;99.90;;;;;;5168106;28;20260;-71
2021/03/16 11:03:39;;;;;;;38.77;22.03;;;7.00;99.90;;;;;;5168193;28;20249;-69
2021/03/16 11:06:11;;;;;;;33.83;19.63;;;7.10;99.90;;;;;;5168571;28;20208;-70
2021/03/16 11:08:43;;;;;;;28.37;16.17;;;7.20;99.90;;;;;;5183467;28;20212;-69
2021/03/16 11:11:14;;;;;;;31.53;16.13;;;7.30;99.90;;;;;;5168107;28;20203;-71
2021/03/16 11:13:46;;;;;;;35.57;15.93;;;7.40;99.90;;;;;;5183494;28;20192;-70
2021/03/16 11:16:17;;;;;;;27.90;15.27;;;7.50;99.90;;;;;;5168647;28;20206;-70
2021/03/16 11:18:49;;;;;;;27.48;16.40;;;7.50;99.90;;;;;;5167029;28;20441;-70
2021/03/16 11:21:21;;;;;;;26.10;13.07;;;7.30;99.90;;;;;;5168428;28;20223;-72
2021/03/16 11:23:53;;;;;;;26.20;13.90;;;7.00;99.90;;;;;;5168263;28;20198;-71
2021/03/16 11:26:28;;;;;;;28.93;13.87;;;6.90;99.90;;;;;;5168069;28;20224;-69
2021/03/16 11:29:01;;;;;;;30.17;13.57;;;6.90;99.90;;;;;;5168214;28;20195;-72
2021/03/16 11:31:32;;;;;;;23.63;13.40;;;7.00;99.90;;;;;;5166749;28;20195;-70
2021/03/16 11:34:05;;;;;;;26.53;12.40;;;7.30;99.90;;;;;;5168079;28;20605;-69
2021/03/16 11:36:36;;;;;;;22.63;12.53;;;7.30;99.90;;;;;;5167795;28;20200;-74
2021/03/16 11:39:13;;;;;;;18.90;10.67;;;7.30;99.90;;;;;;5166746;28;20194;-75
2021/03/16 11:41:45;;;;;;;19.13;10.70;;;7.30;99.90;;;;;;5168256;28;20223;-72
2021/03/16 11:44:16;;;;;;;22.70;13.30;;;7.20;99.90;;;;;;5167848;28;20198;-72
2021/03/16 11:46:48;;;;;;;25.70;13.80;;;7.20;99.90;;;;;;5166627;28;20206;-77
2021/03/16 11:49:20;;;;;;;31.30;17.33;;;7.30;99.90;;;;;;5167193;28;20204;-77
2021/03/16 11:51:51;;;;;;;28.90;15.90;;;7.30;99.90;;;;;;5149806;28;20231;-73
2021/03/16 11:54:23;;;;;;;28.23;16.23;;;7.30;99.90;;;;;;5166199;28;20661;-69
2021/03/16 11:56:54;;;;;;;23.83;12.80;;;7.20;99.90;;;;;;5167556;28;20661;-79
2021/03/16 11:59:26;;;;;;;24.83;13.50;;;7.20;99.90;;;;;;5167279;28;20195;-74
2021/03/16 12:01:57;;;;;;;25.97;15.53;;;7.20;99.90;;;;;;5167684;28;20196;-71
2021/03/16 12:04:29;;;;;;;26.60;15.33;;;7.20;99.90;;;;;;5166834;28;20200;-69
2021/03/16 12:07:04;;;;;;;31.03;16.83;;;7.30;99.90;;;;;;5165896;28;20379;-72
2021/03/16 12:09:50;;;;;;;32.70;16.27;;;7.20;99.90;;;;;;5166690;28;20294;-69
2021/03/16 12:12:22;;;;;;;31.80;17.10;;;7.20;99.90;;;;;;5167361;28;20323;-70
2021/03/16 12:14:53;;;;;;;26.43;15.77;;;7.20;99.90;;;;;;5167015;28;20195;-73
2021/03/16 12:17:25;;;;;;;25.90;15.13;;;7.20;99.90;;;;;;5167236;28;20239;-71
2021/03/16 12:19:56;;;;;;;28.53;15.27;;;7.10;99.90;;;;;;5166751;28;20236;-71
2021/03/16 12:22:28;;;;;;;38.40;19.03;;;7.20;99.90;;;;;;5166825;28;20690;-71
2021/03/16 12:24:59;;;;;;;33.10;18.93;;;7.20;99.90;;;;;;5166830;28;20200;-70
2021/03/16 12:27:31;;;;;;;36.90;18.70;;;7.20;99.90;;;;;;5167083;28;20192;-72
2021/03/16 12:30:05;;;;;;;29.83;17.67;;;7.20;99.90;;;;;;5166927;28;20196;-69
2021/03/16 12:32:38;;;;;;;30.23;17.27;;;7.20;99.90;;;;;;5166896;28;20188;-70
2021/03/16 12:35:13;;;;;;;31.33;17.67;;;7.20;99.90;;;;;;5166759;28;20195;-70
2021/03/16 12:37:44;;;;;;;29.43;17.70;;;7.20;99.90;;;;;;5166710;28;20192;-69
2021/03/16 12:40:16;;;;;;;31.20;17.23;;;7.20;99.90;;;;;;5166162;28;20200;-69
2021/03/16 12:42:51;;;;;;;30.47;15.37;;;7.10;99.90;;;;;;5165797;28;20432;-70
2021/03/16 12:45:25;;;;;;;34.60;17.13;;;7.10;99.90;;;;;;5164757;28;20191;-69
2021/03/16 12:48:05;;;;;;;31.40;15.97;;;7.00;99.90;;;;;;5157333;28;20547;-72
2021/03/16 12:50:37;;;;;;;30.53;17.43;;;6.80;99.90;;;;;;5165171;28;20285;-70
2021/03/16 12:53:09;;;;;;;32.17;16.93;;;6.80;99.90;;;;;;5166479;28;20200;-70
2021/03/16 12:55:42;;;;;;;33.60;17.50;;;6.80;99.90;;;;;;5160823;28;20191;-74
2021/03/16 12:58:13;;;;;;;29.43;16.13;;;6.70;99.90;;;;;;5164172;28;20227;-71
2021/03/16 13:00:45;;;;;;;28.43;15.10;;;6.60;99.90;;;;;;5166809;28;20195;-69
2021/03/16 13:03:17;;;;;;;32.67;16.33;;;6.50;99.90;;;;;;5166467;28;20310;-70
2021/03/16 13:05:49;;;;;;;29.87;16.20;;;6.40;99.90;;;;;;5166472;28;20192;-72
2021/03/16 13:08:20;;;;;;;27.73;15.00;;;6.40;99.90;;;;;;5166463;28;20200;-69
2021/03/16 13:10:52;;;;;;;25.70;15.03;;;6.50;99.90;;;;;;5165250;28;20564;-70
2021/03/16 13:13:23;;;;;;;25.13;13.90;;;6.50;99.90;;;;;;5166604;28;20641;-70
2021/03/16 13:15:55;;;;;;;28.50;14.30;;;6.50;99.90;;;;;;5166316;28;20670;-69
2021/03/16 13:18:29;;;;;;;26.07;12.97;;;6.50;99.90;;;;;;5161213;28;20242;-69
2021/03/16 13:21:01;;;;;;;26.83;14.23;;;6.50;99.90;;;;;;5165084;28;20556;-73
2021/03/16 13:23:32;;;;;;;30.20;17.25;;;6.60;99.90;;;;;;5165534;28;20441;-72
2021/03/16 13:26:04;;;;;;;27.17;15.93;;;6.70;99.90;;;;;;5165828;28;20195;-73
2021/03/16 13:28:35;;;;;;;26.50;14.20;;;6.90;99.90;;;;;;5166028;28;20199;-72
2021/03/16 13:31:07;;;;;;;26.13;15.27;;;7.00;99.90;;;;;;5163513;28;20668;-72
2021/03/16 13:33:39;;;;;;;25.57;15.20;;;7.10;99.90;;;;;;5162068;28;20239;-74
2021/03/16 13:36:12;;;;;;;27.03;14.37;;;7.00;99.90;;;;;;5161754;28;20214;-74
2021/03/16 13:38:43;;;;;;;27.03;15.67;;;6.90;99.90;;;;;;5163200;28;20206;-75
2021/03/16 13:41:15;;;;;;;28.13;15.43;;;6.90;99.90;;;;;;5162543;28;20218;-75
2021/03/16 13:43:47;;;;;;;24.87;14.57;;;7.10;99.90;;;;;;5162597;28;20551;-73
2021/03/16 13:46:19;;;;;;;24.73;14.10;;;7.60;99.90;;;;;;5162646;28;20196;-76